createdAt,value
2023-03-12T00:00:08.739Z,42.10
2023-03-12T00:02:35.829Z,37.78
2023-03-12T00:05:03.613Z,44.15
2023-03-12T00:07:30.530Z,30.98
2023-03-12T00:09:57.524Z,41.40
2023-03-12T00:12:24.585Z,31.73
2023-03-12T00:14:51.529Z,37.42
2023-03-12T00:17:18.498Z,30.30
2023-03-12T00:19:45.520Z,33.90
2023-03-12T00:22:12.465Z,29.98
2023-03-12T00:24:39.419Z,28.52
2023-03-12T00:27:07.249Z,27.15
2023-03-12T00:29:34.221Z,26.73
2023-03-12T00:32:01.217Z,27.42
2023-03-12T00:34:28.229Z,28.83
2023-03-12T00:36:57.121Z,34.53
2023-03-12T00:39:24.045Z,29.88
2023-03-12T00:41:50.938Z,24.23
2023-03-12T00:44:17.913Z,26.60
2023-03-12T00:46:44.955Z,32.05
2023-03-12T00:49:12.280Z,22.80
2023-03-12T00:51:39.384Z,28.02
2023-03-12T00:54:06.292Z,32.63
2023-03-12T00:56:33.603Z,22.95
2023-03-12T00:59:00.651Z,24.00
2023-03-12T01:01:28.458Z,24.98
2023-03-12T01:03:55.826Z,27.08
2023-03-12T01:06:22.836Z,26.38
2023-03-12T01:08:49.926Z,28.08
2023-03-12T01:11:19.801Z,24.55
2023-03-12T01:13:46.984Z,26.00
2023-03-12T01:16:14.050Z,23.27
2023-03-12T01:18:41.112Z,23.15
2023-03-12T01:21:08.275Z,23.63
2023-03-12T01:23:35.285Z,29.33
2023-03-12T01:26:02.221Z,32.28
2023-03-12T01:28:29.416Z,28.67
2023-03-12T01:30:56.298Z,30.92
2023-03-12T01:33:23.408Z,28.98
2023-03-12T01:35:50.640Z,21.55
2023-03-12T01:38:19.137Z,28.98
2023-03-12T01:40:46.504Z,23.25
2023-03-12T01:43:34.573Z,24.08
2023-03-12T01:46:08.364Z,25.33
2023-03-12T01:48:40.302Z,21.42
2023-03-12T01:51:10.412Z,21.52
2023-03-12T01:53:38.478Z,20.60
2023-03-12T01:56:06.518Z,22.00
2023-03-12T01:58:37.291Z,24.52
2023-03-12T02:01:04.659Z,21.10
2023-03-12T02:03:33.252Z,24.73
2023-03-12T02:06:08.565Z,19.92
2023-03-12T02:08:38.022Z,22.90
2023-03-12T02:11:05.175Z,18.63
2023-03-12T02:13:35.229Z,19.40
2023-03-12T02:16:02.808Z,24.02
2023-03-12T02:18:30.722Z,19.25
2023-03-12T02:21:18.242Z,20.10
2023-03-12T02:24:17.153Z,20.55
2023-03-12T02:26:44.407Z,17.15
2023-03-12T02:29:12.766Z,21.58
2023-03-12T02:31:45.951Z,18.30
2023-03-12T02:34:13.448Z,17.15
2023-03-12T02:36:40.455Z,17.58
2023-03-12T02:39:08.069Z,15.52
2023-03-12T02:41:41.509Z,16.65
2023-03-12T02:44:13.390Z,12.98
2023-03-12T02:47:01.373Z,17.27
2023-03-12T02:49:32.016Z,12.40
2023-03-12T02:52:00.304Z,19.95
2023-03-12T02:54:27.836Z,19.52
2023-03-12T02:56:55.338Z,15.50
2023-03-12T02:59:26.609Z,18.15
2023-03-12T03:01:58.864Z,20.52
2023-03-12T03:04:27.946Z,18.88
2023-03-12T03:06:55.188Z,17.45
2023-03-12T03:09:22.505Z,16.70
2023-03-12T03:11:51.026Z,13.38
2023-03-12T03:14:18.707Z,15.23
2023-03-12T03:16:48.450Z,15.40
2023-03-12T03:19:15.402Z,15.30
2023-03-12T03:21:43.851Z,15.65
2023-03-12T03:24:14.088Z,18.33
2023-03-12T03:26:41.094Z,14.38
2023-03-12T03:29:10.795Z,17.70
2023-03-12T03:31:37.861Z,19.25
2023-03-12T03:34:04.919Z,20.23
2023-03-12T03:36:32.021Z,19.98
2023-03-12T03:39:05.131Z,15.23
2023-03-12T03:41:32.978Z,19.00
2023-03-12T03:44:00.023Z,18.58
2023-03-12T03:46:29.507Z,17.88
2023-03-12T03:49:03.428Z,18.52
2023-03-12T03:51:32.013Z,20.73
2023-03-12T03:54:04.525Z,12.98
2023-03-12T03:56:31.489Z,16.15
2023-03-12T03:59:02.040Z,22.08
2023-03-12T04:01:31.395Z,15.70
2023-03-12T04:03:59.707Z,20.80
2023-03-12T04:06:29.764Z,23.63
2023-03-12T04:08:58.346Z,18.25
2023-03-12T04:11:26.725Z,18.73
2023-03-12T04:13:55.301Z,17.60
2023-03-12T04:16:25.240Z,19.55
2023-03-12T04:18:53.896Z,16.83
2023-03-12T04:21:22.814Z,14.98
2023-03-12T04:23:51.107Z,17.40
2023-03-12T04:26:20.909Z,19.95
2023-03-12T04:28:48.104Z,14.82
2023-03-12T04:31:15.503Z,15.75
2023-03-12T04:33:51.441Z,16.42
2023-03-12T04:36:21.236Z,16.80
2023-03-12T04:38:50.172Z,17.83
2023-03-12T04:41:20.684Z,13.60
2023-03-12T04:43:55.662Z,18.98
2023-03-12T04:46:23.334Z,16.17
2023-03-12T04:48:51.043Z,16.98
2023-03-12T04:51:18.409Z,12.48
2023-03-12T04:53:45.453Z,12.20
2023-03-12T04:56:16.253Z,15.23
2023-03-12T04:58:44.679Z,16.58
2023-03-12T05:01:33.131Z,18.08
2023-03-12T05:04:03.443Z,15.70
2023-03-12T05:06:30.485Z,14.32
2023-03-12T05:08:57.525Z,13.48
2023-03-12T05:11:25.241Z,10.95
2023-03-12T05:13:52.157Z,13.35
2023-03-12T05:16:19.574Z,15.50
2023-03-12T05:18:47.338Z,18.33
2023-03-12T05:21:18.719Z,13.95
2023-03-12T05:23:46.909Z,13.45
2023-03-12T05:26:33.670Z,14.35
2023-03-12T05:29:11.375Z,14.07
2023-03-12T05:31:38.634Z,18.35
2023-03-12T05:34:07.017Z,13.85
2023-03-12T05:36:38.617Z,11.80
2023-03-12T05:39:06.010Z,11.90
2023-03-12T05:41:34.921Z,11.02
2023-03-12T05:44:13.661Z,11.57
2023-03-12T05:46:43.082Z,15.45
2023-03-12T05:49:10.937Z,14.88
2023-03-12T05:51:38.255Z,12.25
2023-03-12T05:54:06.633Z,9.35
2023-03-12T05:56:35.676Z,10.35
2023-03-12T05:59:03.426Z,9.98
2023-03-12T06:01:31.466Z,9.77
2023-03-12T06:04:01.793Z,9.23
2023-03-12T06:06:31.489Z,11.88
2023-03-12T06:08:58.571Z,9.65
2023-03-12T06:11:28.912Z,12.63
2023-03-12T06:13:56.853Z,11.13
2023-03-12T06:16:26.451Z,11.30
2023-03-12T06:18:55.557Z,9.02
2023-03-12T06:21:25.164Z,8.35
2023-03-12T06:23:53.195Z,12.13
2023-03-12T06:26:25.625Z,10.88
2023-03-12T06:28:54.283Z,14.25
2023-03-12T06:31:22.036Z,10.60
2023-03-12T06:33:49.208Z,10.02
2023-03-12T06:36:16.409Z,12.23
2023-03-12T06:38:43.424Z,9.38
2023-03-12T06:41:14.019Z,10.63
2023-03-12T06:43:43.534Z,8.85
2023-03-12T06:46:13.943Z,13.55
2023-03-12T06:48:41.559Z,9.63
2023-03-12T06:51:13.336Z,10.50
2023-03-12T06:53:42.362Z,11.57
2023-03-12T06:56:09.988Z,9.18
2023-03-12T06:58:36.999Z,9.63
2023-03-12T07:01:07.122Z,10.50
2023-03-12T07:03:34.447Z,9.38
2023-03-12T07:06:01.612Z,8.85
2023-03-12T07:08:32.253Z,8.85
2023-03-12T07:11:03.586Z,8.98
2023-03-12T07:13:30.757Z,7.90
2023-03-12T07:15:57.940Z,10.52
2023-03-12T07:18:25.237Z,9.88
2023-03-12T07:20:52.653Z,8.90
2023-03-12T07:23:19.830Z,11.38
2023-03-12T07:25:47.927Z,10.75
2023-03-12T07:28:16.466Z,8.55
2023-03-12T07:30:43.552Z,7.72
2023-03-12T07:33:12.449Z,9.73
2023-03-12T07:35:40.118Z,8.85
2023-03-12T07:38:08.244Z,9.25
2023-03-12T07:40:36.580Z,11.13
2023-03-12T07:43:11.009Z,8.48
2023-03-12T07:45:39.636Z,7.50
2023-03-12T07:48:07.640Z,8.68
2023-03-12T07:50:37.482Z,7.95
2023-03-12T07:53:05.808Z,10.43
2023-03-12T07:55:33.737Z,8.00
2023-03-12T07:58:01.025Z,7.10
2023-03-12T08:00:29.444Z,7.63
2023-03-12T08:02:56.959Z,7.50
2023-03-12T08:05:24.981Z,8.57
2023-03-12T08:07:52.803Z,9.65
2023-03-12T08:10:20.941Z,8.15
2023-03-12T08:12:49.268Z,7.13
2023-03-12T08:15:16.676Z,7.03
2023-03-12T08:17:44.101Z,8.48
2023-03-12T08:20:12.227Z,9.10
2023-03-12T08:22:40.163Z,8.50
2023-03-12T08:25:08.470Z,9.70
2023-03-12T08:27:35.713Z,6.82
2023-03-12T08:30:03.922Z,9.95
2023-03-12T08:32:30.898Z,7.32
2023-03-12T08:34:57.908Z,7.75
2023-03-12T08:37:24.891Z,8.18
2023-03-12T08:39:51.801Z,8.00
2023-03-12T08:42:18.879Z,6.43
2023-03-12T08:44:45.837Z,8.73
2023-03-12T08:47:12.783Z,9.65
2023-03-12T08:49:39.788Z,8.48
2023-03-12T08:52:06.699Z,7.30
2023-03-12T08:54:33.689Z,10.57
2023-03-12T08:57:01.888Z,8.07
2023-03-12T08:59:28.870Z,6.95
2023-03-12T09:01:55.835Z,10.30
2023-03-12T09:04:22.893Z,12.02
2023-03-12T09:06:49.822Z,6.72
2023-03-12T09:09:16.911Z,7.85
2023-03-12T09:11:43.886Z,7.80
2023-03-12T09:16:58.251Z,7.72
2023-03-12T09:19:25.319Z,8.30
2023-03-12T09:21:52.306Z,6.60
2023-03-12T09:24:19.341Z,5.50
2023-03-12T09:26:46.296Z,7.22
2023-03-12T09:29:16.390Z,10.30
2023-03-12T09:31:43.261Z,12.90
2023-03-12T09:34:10.182Z,7.47
2023-03-12T09:36:37.241Z,7.60
2023-03-12T09:39:04.304Z,6.05
2023-03-12T09:41:35.388Z,7.65
2023-03-12T09:44:05.034Z,7.07
2023-03-12T09:46:37.985Z,7.90
2023-03-12T09:49:18.619Z,8.90
2023-03-12T09:51:49.344Z,6.65
2023-03-12T09:54:29.455Z,5.90
2023-03-12T09:57:00.547Z,7.55
2023-03-12T09:59:30.318Z,5.75
2023-03-12T10:02:01.465Z,8.77
2023-03-12T10:04:37.781Z,5.80
2023-03-12T10:07:18.760Z,8.63
2023-03-12T10:10:01.943Z,8.38
2023-03-12T10:12:58.131Z,7.32
2023-03-12T10:15:50.784Z,9.15
2023-03-12T10:18:48.605Z,9.25
2023-03-12T10:21:47.308Z,7.30
2023-03-12T10:24:31.646Z,6.72
2023-03-12T10:26:59.163Z,9.48
2023-03-12T10:29:33.047Z,13.18
2023-03-12T10:32:12.725Z,7.45
2023-03-12T10:34:45.768Z,8.75
2023-03-12T10:37:22.490Z,7.95
2023-03-12T10:39:50.543Z,9.50
2023-03-12T10:42:20.871Z,8.15
2023-03-12T10:45:04.088Z,9.00
2023-03-12T10:47:36.991Z,7.40
2023-03-12T10:50:21.866Z,7.72
2023-03-12T10:52:52.001Z,10.65
2023-03-12T10:55:22.019Z,8.23
2023-03-12T10:57:49.745Z,6.82
2023-03-12T11:00:29.195Z,10.60
2023-03-12T11:03:04.812Z,8.23
2023-03-12T11:08:18.444Z,7.15
2023-03-12T11:10:47.254Z,10.32
2023-03-12T11:13:41.563Z,7.68
2023-03-12T11:16:17.422Z,8.63
2023-03-12T11:19:05.471Z,11.23
2023-03-12T11:21:37.023Z,8.25
2023-03-12T11:24:08.353Z,10.02
2023-03-12T11:26:37.740Z,8.63
2023-03-12T11:29:24.309Z,10.80
2023-03-12T11:32:13.014Z,8.10
2023-03-12T11:34:40.260Z,7.88
2023-03-12T11:37:07.159Z,8.57
2023-03-12T11:40:13.446Z,8.40
2023-03-12T11:42:58.994Z,11.38
2023-03-12T11:45:52.533Z,8.65
2023-03-12T11:48:28.269Z,7.47
2023-03-12T11:53:41.632Z,8.00
2023-03-12T11:56:30.352Z,9.77
2023-03-12T11:59:43.969Z,5.63
2023-03-12T12:02:21.863Z,9.75
2023-03-12T12:05:19.522Z,6.78
2023-03-12T12:08:21.784Z,9.93
2023-03-12T12:11:00.274Z,7.22
2023-03-12T12:13:40.734Z,7.15
2023-03-12T12:16:31.428Z,7.10
2023-03-12T12:19:05.714Z,7.05
2023-03-12T12:21:51.375Z,7.80
2023-03-12T12:24:42.562Z,7.53
2023-03-12T12:27:18.400Z,5.75
2023-03-12T12:32:32.874Z,6.03
2023-03-12T12:35:22.355Z,9.85
2023-03-12T12:38:00.926Z,8.05
2023-03-12T12:40:39.825Z,8.38
2023-03-12T12:43:32.332Z,7.60
2023-03-12T12:46:04.260Z,9.50
2023-03-12T12:48:43.389Z,8.32
2023-03-12T12:51:11.576Z,10.25
2023-03-12T12:53:56.728Z,6.78
2023-03-12T12:56:23.701Z,8.35
2023-03-12T12:59:03.454Z,7.85
2023-03-12T13:01:32.562Z,10.88
2023-03-12T13:04:05.680Z,9.35
2023-03-12T13:07:01.987Z,9.40
2023-03-12T13:09:39.772Z,8.13
2023-03-12T13:12:28.219Z,8.68
2023-03-12T13:14:56.568Z,9.88
2023-03-12T13:17:31.305Z,10.07
2023-03-12T13:20:11.343Z,9.05
2023-03-12T13:22:58.240Z,8.25
2023-03-12T13:25:44.245Z,12.25
2023-03-12T13:30:51.544Z,10.75
2023-03-12T13:33:35.717Z,11.48
2023-03-12T13:36:11.885Z,11.18
2023-03-12T13:39:01.588Z,7.78
2023-03-12T13:41:33.363Z,8.02
2023-03-12T13:44:21.360Z,9.98
2023-03-12T13:46:49.401Z,11.07
2023-03-12T13:49:18.725Z,8.60
2023-03-12T13:51:54.676Z,11.43
2023-03-12T13:54:26.120Z,8.55
2023-03-12T13:56:59.958Z,11.57
2023-03-12T13:59:28.645Z,8.82
2023-03-12T14:02:00.705Z,10.40
2023-03-12T14:04:35.798Z,10.80
2023-03-12T14:07:22.690Z,7.38
2023-03-12T14:10:11.364Z,10.80
2023-03-12T14:13:03.026Z,9.65
2023-03-12T14:15:54.052Z,10.32
2023-03-12T14:18:24.246Z,8.75
2023-03-12T14:20:58.130Z,10.50
2023-03-12T14:23:29.619Z,10.95
2023-03-12T14:26:02.336Z,8.93
2023-03-12T14:28:37.968Z,7.47
2023-03-12T14:31:14.351Z,8.98
2023-03-12T14:34:14.628Z,9.10
2023-03-12T14:37:01.245Z,8.38
2023-03-12T14:39:36.703Z,11.32
2023-03-12T14:44:34.995Z,10.13
2023-03-12T14:47:07.375Z,9.50
2023-03-12T14:49:41.447Z,8.52
2023-03-12T14:52:11.437Z,11.70
2023-03-12T14:54:39.654Z,9.68
2023-03-12T14:57:15.503Z,8.52
2023-03-12T14:59:51.638Z,8.48
2023-03-12T15:02:19.991Z,10.02
2023-03-12T15:04:49.769Z,12.63
2023-03-12T15:07:23.157Z,10.60
2023-03-12T15:09:52.137Z,9.02
2023-03-12T15:12:18.992Z,12.23
2023-03-12T15:14:49.642Z,7.10
2023-03-12T15:17:22.028Z,20.33
2023-03-12T15:19:50.369Z,12.38
2023-03-12T15:22:21.073Z,9.15
2023-03-12T15:24:48.305Z,8.90
2023-03-12T15:27:28.173Z,8.90
2023-03-12T15:29:57.338Z,8.75
2023-03-12T15:32:25.849Z,11.80
2023-03-12T15:34:56.471Z,10.30
2023-03-12T15:37:41.013Z,8.05
2023-03-12T15:40:21.991Z,11.80
2023-03-12T15:42:49.756Z,8.52
2023-03-12T15:45:25.225Z,9.38
2023-03-12T15:47:54.535Z,7.80
2023-03-12T15:50:31.126Z,10.43
2023-03-12T15:52:59.257Z,8.63
2023-03-12T15:55:30.217Z,10.00
2023-03-12T15:57:58.682Z,8.75
2023-03-12T16:00:30.372Z,9.23
2023-03-12T16:03:03.983Z,9.48
2023-03-12T16:05:35.135Z,9.15
2023-03-12T16:08:17.946Z,9.55
2023-03-12T16:10:48.648Z,9.50
2023-03-12T16:13:20.075Z,10.32
2023-03-12T16:15:48.093Z,8.63
2023-03-12T16:18:18.093Z,8.82
2023-03-12T16:20:45.737Z,8.57
2023-03-12T16:23:13.122Z,10.65
2023-03-12T16:25:44.004Z,9.38
2023-03-12T16:28:14.329Z,10.02
2023-03-12T16:30:41.686Z,7.93
2023-03-12T16:33:13.020Z,11.02
2023-03-12T16:35:43.313Z,9.55
2023-03-12T16:38:10.281Z,10.07
2023-03-12T16:40:50.728Z,11.27
2023-03-12T16:43:23.144Z,10.88
2023-03-12T16:45:52.224Z,10.63
2023-03-12T16:48:21.819Z,11.75
2023-03-12T16:50:53.216Z,10.48
2023-03-12T16:53:20.848Z,7.63
2023-03-12T16:55:52.709Z,10.43
2023-03-12T16:58:21.165Z,10.73
2023-03-12T17:00:48.795Z,11.07
2023-03-12T17:03:40.021Z,9.95
2023-03-12T17:06:07.978Z,9.20
2023-03-12T17:08:36.008Z,10.07
2023-03-12T17:11:04.452Z,11.15
2023-03-12T17:13:31.451Z,12.70
2023-03-12T17:15:58.796Z,10.43
2023-03-12T17:18:25.756Z,8.57
2023-03-12T17:20:52.984Z,12.27
2023-03-12T17:23:20.127Z,11.50
2023-03-12T17:25:47.188Z,13.70
2023-03-12T17:28:15.486Z,9.25
2023-03-12T17:30:43.210Z,12.45
2023-03-12T17:33:13.873Z,11.82
2023-03-12T17:35:41.585Z,12.02
2023-03-12T17:38:08.767Z,12.73
2023-03-12T17:40:41.626Z,9.40
2023-03-12T17:43:08.660Z,10.93
2023-03-12T17:45:36.974Z,10.75
2023-03-12T17:48:04.269Z,11.68
2023-03-12T17:50:31.510Z,11.23
2023-03-12T17:52:58.743Z,11.48
2023-03-12T17:55:26.446Z,10.85
2023-03-12T17:57:53.673Z,12.10
2023-03-12T18:00:22.942Z,12.30
2023-03-12T18:02:50.376Z,12.95
2023-03-12T18:05:17.432Z,13.38
2023-03-12T18:07:46.642Z,10.20
2023-03-12T18:10:13.966Z,13.77
2023-03-12T18:12:50.931Z,12.50
2023-03-12T18:15:21.968Z,12.85
2023-03-12T18:17:59.809Z,10.60
2023-03-12T18:20:37.753Z,13.75
2023-03-12T18:23:05.948Z,13.98
2023-03-12T18:25:32.960Z,12.73
2023-03-12T18:27:59.875Z,15.20
2023-03-12T18:30:28.253Z,13.52
2023-03-12T18:32:55.390Z,12.43
2023-03-12T18:35:22.827Z,14.35
2023-03-12T18:37:51.836Z,15.55
2023-03-12T18:40:18.805Z,13.63
2023-03-12T18:42:45.810Z,18.83
2023-03-12T18:45:13.182Z,12.73
2023-03-12T18:47:40.183Z,16.42
2023-03-12T18:50:08.498Z,16.05
2023-03-12T18:52:35.970Z,17.92
2023-03-12T18:55:04.396Z,18.05
2023-03-12T18:57:31.677Z,18.40
2023-03-12T18:59:59.358Z,13.88
2023-03-12T19:02:26.533Z,14.65
2023-03-12T19:04:55.971Z,20.15
2023-03-12T19:07:23.240Z,15.77
2023-03-12T19:09:50.983Z,16.27
2023-03-12T19:12:17.896Z,18.77
2023-03-12T19:14:44.833Z,14.35
2023-03-12T19:17:13.549Z,13.63
2023-03-12T19:19:40.450Z,17.75
2023-03-12T19:22:07.444Z,16.52
2023-03-12T19:24:35.545Z,16.63
2023-03-12T19:27:02.505Z,14.13
2023-03-12T19:29:29.480Z,17.38
2023-03-12T19:31:56.414Z,18.75
2023-03-12T19:34:23.434Z,16.08
2023-03-12T19:36:50.360Z,17.92
2023-03-12T19:39:21.367Z,16.02
2023-03-12T19:41:49.325Z,15.63
2023-03-12T19:44:16.344Z,19.13
2023-03-12T19:46:43.378Z,19.92
2023-03-12T19:49:10.548Z,16.65
2023-03-12T19:51:40.173Z,17.05
2023-03-12T19:54:07.978Z,19.05
2023-03-12T19:56:36.686Z,16.10
2023-03-12T19:59:06.271Z,15.55
2023-03-12T20:01:33.828Z,16.67
2023-03-12T20:04:00.846Z,17.70
2023-03-12T20:06:27.779Z,18.73
2023-03-12T20:08:54.833Z,16.70
2023-03-12T20:11:21.942Z,17.45
2023-03-12T20:13:49.140Z,14.85
2023-03-12T20:16:17.345Z,20.58
2023-03-12T20:18:44.910Z,14.18
2023-03-12T20:21:12.390Z,13.98
2023-03-12T20:23:39.584Z,17.77
2023-03-12T20:26:07.549Z,16.85
2023-03-12T20:28:35.701Z,15.80
2023-03-12T20:31:14.588Z,18.90
2023-03-12T20:33:42.858Z,17.25
2023-03-12T20:36:13.037Z,17.42
2023-03-12T20:38:41.001Z,19.00
2023-03-12T20:41:14.848Z,18.10
2023-03-12T20:43:43.558Z,18.10
2023-03-12T20:46:11.841Z,18.13
2023-03-12T20:48:39.058Z,16.92
2023-03-12T20:51:06.233Z,17.08
2023-03-12T20:53:33.376Z,17.02
2023-03-12T20:56:00.577Z,14.35
2023-03-12T20:58:27.718Z,15.15
2023-03-12T21:00:55.679Z,14.05
2023-03-12T21:03:25.142Z,15.85
2023-03-12T21:05:53.988Z,18.30
2023-03-12T21:08:21.427Z,16.48
2023-03-12T21:10:48.732Z,12.90
2023-03-12T21:13:21.000Z,18.75
2023-03-12T21:15:48.748Z,12.18
2023-03-12T21:18:17.109Z,16.92
2023-03-12T21:20:44.678Z,16.27
2023-03-12T21:23:12.219Z,19.88
2023-03-12T21:25:41.322Z,15.68
2023-03-12T21:28:09.735Z,12.57
2023-03-12T21:30:38.088Z,15.82
2023-03-12T21:33:07.261Z,16.85
2023-03-12T21:35:34.383Z,16.48
2023-03-12T21:38:02.580Z,14.77
2023-03-12T21:40:29.614Z,14.55
2023-03-12T21:42:56.597Z,18.77
2023-03-12T21:45:23.518Z,15.77
2023-03-12T21:47:50.485Z,18.70
2023-03-12T21:50:17.544Z,15.20
2023-03-12T21:52:49.088Z,17.55
2023-03-12T21:55:17.144Z,14.02
2023-03-12T21:57:49.960Z,14.93
2023-03-12T22:00:17.266Z,15.95
2023-03-12T22:02:45.973Z,18.17
2023-03-12T22:05:14.103Z,19.42
2023-03-12T22:07:41.137Z,17.52
2023-03-12T22:10:11.817Z,14.18
2023-03-12T22:12:40.292Z,18.40
2023-03-12T22:15:08.215Z,16.38
2023-03-12T22:17:35.303Z,14.00
2023-03-12T22:20:02.289Z,19.13
2023-03-12T22:22:29.325Z,15.00
2023-03-12T22:24:58.776Z,14.15
2023-03-12T22:27:25.707Z,15.00
2023-03-12T22:29:53.114Z,14.85
2023-03-12T22:32:20.322Z,15.10
2023-03-12T22:34:47.832Z,13.38
2023-03-12T22:37:14.771Z,12.75
2023-03-12T22:39:43.310Z,16.48
2023-03-12T22:42:10.265Z,12.30
2023-03-12T22:44:42.856Z,17.20
2023-03-12T22:47:09.849Z,15.05
2023-03-12T22:49:36.779Z,12.45
2023-03-12T22:52:03.904Z,14.00
2023-03-12T22:54:33.963Z,13.20
2023-03-12T22:57:00.852Z,16.95
2023-03-12T22:59:27.758Z,9.57
2023-03-12T23:01:54.906Z,11.95
2023-03-12T23:04:21.980Z,13.23
2023-03-12T23:06:49.042Z,13.10
2023-03-12T23:09:15.987Z,11.70
2023-03-12T23:11:42.911Z,15.30
2023-03-12T23:14:09.873Z,12.32
2023-03-12T23:16:36.840Z,12.98
2023-03-12T23:19:03.837Z,14.90
2023-03-12T23:21:30.944Z,11.13
2023-03-12T23:23:59.292Z,13.00
2023-03-12T23:26:29.250Z,13.75
2023-03-12T23:28:58.409Z,10.52
2023-03-12T23:31:27.539Z,10.85
2023-03-12T23:33:55.063Z,11.18
2023-03-12T23:36:23.889Z,12.40
2023-03-12T23:38:51.874Z,10.75
2023-03-12T23:41:26.134Z,12.43
2023-03-12T23:43:53.433Z,12.68
2023-03-12T23:46:21.066Z,10.18
2023-03-12T23:48:48.819Z,10.55
2023-03-12T23:51:17.150Z,13.90
2023-03-12T23:53:46.769Z,10.93
2023-03-12T23:56:21.754Z,11.55
2023-03-12T23:58:51.365Z,14.13
